.
Local / Fort Wayne - NE Ind.

U N D E R   C O N S T R U C T I O N

Local Weather
Fort Wayne – NE Indiana

Northern Indiana (IWX) Radar

Latest IWX NEXRAD
Base Reflectivity



Latest IWX NEXRAD
Base Velocity

Indiana-Ohio Visible Satellite

For infrared and water vapor imagery, see Great Lakes - Midwest.

Current Conditions

Recent report from the Fort Wayne International Airport

Recent report from the Fort Wayne International Airport

May 19, 2024 - 12:54 AM EDT / 2024.05.19 0454 UTC


The skies are mostly clear. The temperature is 66.0 F (18.9 C) and the dew point is 61.0 F (16.1 C), giving a relative humidity of 83%. The barometric pressure is 29.93 in. Hg (1013 hPa). The wind is Calm, and the visibility is 10 mile(s).

KFWA 190454Z 00000KT 10SM FEW075 19/16 A2993 RMK AO2 SLP131 T01890161 402890144

Recent report from the DeKalb County Airport

May 19, 2024 - 01:15 AM EDT / 2024.05.19 0515 UTC


The skies are clear. The temperature is 62 F (17 C) and the dew point is 60 F (16 C), giving a relative humidity of 93%. The barometric pressure is 29.94 in. Hg (1013 hPa). The wind is Calm, and the visibility is 10 mile(s).

KGWB 190515Z AUTO 00000KT 10SM CLR 17/16 A2994 RMK AO2

Local Weather — Contents

Local Weather — Links

CoCoRaHS
IN-AL-99
A2 Web Hosting
Creative Commons License
GoDaddy
search engine by freefind advanced

loaded 2024-05-19 01:41:25 • last modified 2017-02-11 13:27:36
Privacy PolicyDisclaimer
• wx.awcolley.com is powered by PmWiki v.2002016 •
• all content (unless otherwise noted) © 2024 A W Colley